sensor_id;sensor_type;location;lat;lon;timestamp;P1;durP1;ratioP1;P2;durP2;ratioP2
16073;SDS011;8141;52.664;5.074;2023-08-31T00:00:42;0.33;;;0.10;;
16073;SDS011;8141;52.664;5.074;2023-08-31T00:03:08;0.30;;;0.30;;
16073;SDS011;8141;52.664;5.074;2023-08-31T00:05:38;0.40;;;0.30;;
16073;SDS011;8141;52.664;5.074;2023-08-31T00:08:06;0.77;;;0.30;;
16073;SDS011;8141;52.664;5.074;2023-08-31T00:10:33;0.63;;;0.40;;
16073;SDS011;8141;52.664;5.074;2023-08-31T00:13:00;0.33;;;0.30;;
16073;SDS011;8141;52.664;5.074;2023-08-31T00:15:31;0.50;;;0.30;;
16073;SDS011;8141;52.664;5.074;2023-08-31T00:17:58;0.47;;;0.40;;
16073;SDS011;8141;52.664;5.074;2023-08-31T00:20:24;0.20;;;0.20;;
16073;SDS011;8141;52.664;5.074;2023-08-31T00:22:51;0.40;;;0.30;;
16073;SDS011;8141;52.664;5.074;2023-08-31T00:25:17;0.53;;;0.40;;
16073;SDS011;8141;52.664;5.074;2023-08-31T00:27:43;0.67;;;0.40;;
16073;SDS011;8141;52.664;5.074;2023-08-31T00:30:12;0.30;;;0.20;;
16073;SDS011;8141;52.664;5.074;2023-08-31T00:32:39;0.93;;;0.30;;
16073;SDS011;8141;52.664;5.074;2023-08-31T00:35:07;0.63;;;0.20;;
16073;SDS011;8141;52.664;5.074;2023-08-31T00:37:34;0.30;;;0.27;;
16073;SDS011;8141;52.664;5.074;2023-08-31T00:40:00;0.47;;;0.30;;
16073;SDS011;8141;52.664;5.074;2023-08-31T00:42:26;1.20;;;0.30;;
16073;SDS011;8141;52.664;5.074;2023-08-31T00:44:54;1.03;;;0.30;;
16073;SDS011;8141;52.664;5.074;2023-08-31T00:47:20;0.77;;;0.40;;
16073;SDS011;8141;52.664;5.074;2023-08-31T00:49:46;0.20;;;0.20;;
16073;SDS011;8141;52.664;5.074;2023-08-31T00:52:12;1.03;;;0.37;;
16073;SDS011;8141;52.664;5.074;2023-08-31T00:54:38;1.30;;;0.43;;
16073;SDS011;8141;52.664;5.074;2023-08-31T00:57:04;0.43;;;0.40;;
16073;SDS011;8141;52.664;5.074;2023-08-31T00:59:30;0.27;;;0.20;;
16073;SDS011;8141;52.664;5.074;2023-08-31T01:01:59;0.20;;;0.20;;
16073;SDS011;8141;52.664;5.074;2023-08-31T01:04:43;0.37;;;0.30;;
16073;SDS011;8141;52.664;5.074;2023-08-31T01:07:40;0.90;;;0.40;;
16073;SDS011;8141;52.664;5.074;2023-08-31T01:13:25;0.20;;;0.20;;
16073;SDS011;8141;52.664;5.074;2023-08-31T01:15:56;0.53;;;0.30;;
16073;SDS011;8141;52.664;5.074;2023-08-31T01:18:26;0.57;;;0.30;;
16073;SDS011;8141;52.664;5.074;2023-08-31T01:24:00;0.80;;;0.40;;
16073;SDS011;8141;52.664;5.074;2023-08-31T01:26:27;0.53;;;0.20;;
16073;SDS011;8141;52.664;5.074;2023-08-31T01:28:54;0.80;;;0.20;;
16073;SDS011;8141;52.664;5.074;2023-08-31T01:31:20;0.40;;;0.20;;
16073;SDS011;8141;52.664;5.074;2023-08-31T01:33:46;0.30;;;0.30;;
16073;SDS011;8141;52.664;5.074;2023-08-31T01:36:17;0.30;;;0.23;;
16073;SDS011;8141;52.664;5.074;2023-08-31T01:39:10;0.63;;;0.30;;
16073;SDS011;8141;52.664;5.074;2023-08-31T01:41:46;0.40;;;0.20;;
16073;SDS011;8141;52.664;5.074;2023-08-31T01:46:46;0.30;;;0.20;;
16073;SDS011;8141;52.664;5.074;2023-08-31T01:49:17;0.67;;;0.20;;
16073;SDS011;8141;52.664;5.074;2023-08-31T01:51:44;0.20;;;0.20;;
16073;SDS011;8141;52.664;5.074;2023-08-31T01:54:10;0.40;;;0.40;;
16073;SDS011;8141;52.664;5.074;2023-08-31T01:56:36;0.53;;;0.30;;
16073;SDS011;8141;52.664;5.074;2023-08-31T01:59:01;0.20;;;0.20;;
16073;SDS011;8141;52.664;5.074;2023-08-31T02:01:27;0.27;;;0.20;;
16073;SDS011;8141;52.664;5.074;2023-08-31T02:03:54;0.50;;;0.50;;
16073;SDS011;8141;52.664;5.074;2023-08-31T02:06:20;0.57;;;0.40;;
16073;SDS011;8141;52.664;5.074;2023-08-31T02:08:45;0.30;;;0.30;;
16073;SDS011;8141;52.664;5.074;2023-08-31T02:11:12;0.33;;;0.30;;
16073;SDS011;8141;52.664;5.074;2023-08-31T02:13:38;0.30;;;0.30;;
16073;SDS011;8141;52.664;5.074;2023-08-31T02:16:05;0.30;;;0.20;;
16073;SDS011;8141;52.664;5.074;2023-08-31T02:18:30;0.40;;;0.30;;
16073;SDS011;8141;52.664;5.074;2023-08-31T02:20:56;0.50;;;0.40;;
16073;SDS011;8141;52.664;5.074;2023-08-31T02:23:22;0.47;;;0.20;;
16073;SDS011;8141;52.664;5.074;2023-08-31T02:25:48;0.33;;;0.30;;
16073;SDS011;8141;52.664;5.074;2023-08-31T02:28:14;0.43;;;0.13;;
16073;SDS011;8141;52.664;5.074;2023-08-31T02:30:40;0.30;;;0.27;;
16073;SDS011;8141;52.664;5.074;2023-08-31T02:33:09;0.10;;;0.10;;
16073;SDS011;8141;52.664;5.074;2023-08-31T02:35:35;0.40;;;0.30;;
16073;SDS011;8141;52.664;5.074;2023-08-31T02:38:01;0.20;;;0.20;;
16073;SDS011;8141;52.664;5.074;2023-08-31T02:40:27;0.33;;;0.20;;
16073;SDS011;8141;52.664;5.074;2023-08-31T02:42:53;0.30;;;0.27;;
16073;SDS011;8141;52.664;5.074;2023-08-31T02:45:18;0.17;;;0.17;;
16073;SDS011;8141;52.664;5.074;2023-08-31T02:47:44;0.20;;;0.20;;
16073;SDS011;8141;52.664;5.074;2023-08-31T02:50:10;0.23;;;0.20;;
16073;SDS011;8141;52.664;5.074;2023-08-31T02:52:36;0.20;;;0.20;;
16073;SDS011;8141;52.664;5.074;2023-08-31T02:55:02;0.30;;;0.20;;
16073;SDS011;8141;52.664;5.074;2023-08-31T02:57:27;0.10;;;0.10;;
16073;SDS011;8141;52.664;5.074;2023-08-31T02:59:53;0.97;;;0.30;;
16073;SDS011;8141;52.664;5.074;2023-08-31T03:02:19;0.30;;;0.20;;
16073;SDS011;8141;52.664;5.074;2023-08-31T03:04:45;0.30;;;0.20;;
16073;SDS011;8141;52.664;5.074;2023-08-31T03:07:10;0.20;;;0.20;;
16073;SDS011;8141;52.664;5.074;2023-08-31T03:09:39;0.20;;;0.20;;
16073;SDS011;8141;52.664;5.074;2023-08-31T03:12:05;0.33;;;0.30;;
16073;SDS011;8141;52.664;5.074;2023-08-31T03:14:31;0.43;;;0.30;;
16073;SDS011;8141;52.664;5.074;2023-08-31T03:16:57;0.30;;;0.30;;
16073;SDS011;8141;52.664;5.074;2023-08-31T03:19:22;0.70;;;0.30;;
16073;SDS011;8141;52.664;5.074;2023-08-31T03:21:49;0.60;;;0.40;;
16073;SDS011;8141;52.664;5.074;2023-08-31T03:24:15;0.97;;;0.30;;
16073;SDS011;8141;52.664;5.074;2023-08-31T03:26:40;0.33;;;0.20;;
16073;SDS011;8141;52.664;5.074;2023-08-31T03:29:06;0.20;;;0.20;;
16073;SDS011;8141;52.664;5.074;2023-08-31T03:31:33;0.63;;;0.50;;
16073;SDS011;8141;52.664;5.074;2023-08-31T03:33:58;0.20;;;0.20;;
16073;SDS011;8141;52.664;5.074;2023-08-31T03:36:24;1.13;;;0.30;;
16073;SDS011;8141;52.664;5.074;2023-08-31T03:38:50;0.10;;;0.10;;
16073;SDS011;8141;52.664;5.074;2023-08-31T03:41:15;0.63;;;0.30;;
16073;SDS011;8141;52.664;5.074;2023-08-31T03:43:41;0.00;;;0.00;;
16073;SDS011;8141;52.664;5.074;2023-08-31T03:46:07;0.40;;;0.20;;
16073;SDS011;8141;52.664;5.074;2023-08-31T03:48:33;0.20;;;0.20;;
16073;SDS011;8141;52.664;5.074;2023-08-31T03:50:59;0.20;;;0.20;;
16073;SDS011;8141;52.664;5.074;2023-08-31T03:53:24;0.83;;;0.30;;
16073;SDS011;8141;52.664;5.074;2023-08-31T03:55:50;1.50;;;0.30;;
16073;SDS011;8141;52.664;5.074;2023-08-31T03:58:16;0.30;;;0.20;;
16073;SDS011;8141;52.664;5.074;2023-08-31T04:00:41;0.73;;;0.30;;
16073;SDS011;8141;52.664;5.074;2023-08-31T04:03:08;0.30;;;0.30;;
16073;SDS011;8141;52.664;5.074;2023-08-31T04:05:34;0.50;;;0.27;;
16073;SDS011;8141;52.664;5.074;2023-08-31T04:08:01;0.20;;;0.20;;
16073;SDS011;8141;52.664;5.074;2023-08-31T04:10:27;0.63;;;0.30;;
16073;SDS011;8141;52.664;5.074;2023-08-31T04:12:54;0.30;;;0.30;;
16073;SDS011;8141;52.664;5.074;2023-08-31T04:15:20;0.27;;;0.20;;
16073;SDS011;8141;52.664;5.074;2023-08-31T04:17:46;0.30;;;0.30;;
16073;SDS011;8141;52.664;5.074;2023-08-31T04:20:12;0.20;;;0.20;;
16073;SDS011;8141;52.664;5.074;2023-08-31T04:22:38;0.10;;;0.10;;
16073;SDS011;8141;52.664;5.074;2023-08-31T04:25:03;0.93;;;0.20;;
16073;SDS011;8141;52.664;5.074;2023-08-31T04:27:29;0.53;;;0.20;;
16073;SDS011;8141;52.664;5.074;2023-08-31T04:29:56;0.47;;;0.20;;
16073;SDS011;8141;52.664;5.074;2023-08-31T04:32:24;0.30;;;0.20;;
16073;SDS011;8141;52.664;5.074;2023-08-31T04:34:50;0.30;;;0.20;;
16073;SDS011;8141;52.664;5.074;2023-08-31T04:37:17;0.40;;;0.20;;
16073;SDS011;8141;52.664;5.074;2023-08-31T04:39:42;0.37;;;0.20;;
16073;SDS011;8141;52.664;5.074;2023-08-31T04:42:08;0.40;;;0.27;;
16073;SDS011;8141;52.664;5.074;2023-08-31T04:44:34;0.40;;;0.23;;
16073;SDS011;8141;52.664;5.074;2023-08-31T04:47:00;0.20;;;0.10;;
16073;SDS011;8141;52.664;5.074;2023-08-31T04:49:26;0.70;;;0.30;;
16073;SDS011;8141;52.664;5.074;2023-08-31T04:51:52;1.20;;;0.37;;
16073;SDS011;8141;52.664;5.074;2023-08-31T04:54:18;0.40;;;0.20;;
16073;SDS011;8141;52.664;5.074;2023-08-31T04:56:43;0.70;;;0.20;;
16073;SDS011;8141;52.664;5.074;2023-08-31T04:59:09;0.57;;;0.30;;
16073;SDS011;8141;52.664;5.074;2023-08-31T05:01:35;0.23;;;0.13;;
16073;SDS011;8141;52.664;5.074;2023-08-31T05:04:02;0.80;;;0.40;;
16073;SDS011;8141;52.664;5.074;2023-08-31T05:06:28;0.40;;;0.20;;
16073;SDS011;8141;52.664;5.074;2023-08-31T05:08:54;0.20;;;0.20;;
16073;SDS011;8141;52.664;5.074;2023-08-31T05:11:20;0.57;;;0.20;;
16073;SDS011;8141;52.664;5.074;2023-08-31T05:13:46;0.80;;;0.20;;
16073;SDS011;8141;52.664;5.074;2023-08-31T05:16:13;0.50;;;0.20;;
16073;SDS011;8141;52.664;5.074;2023-08-31T05:18:39;3.13;;;0.50;;
16073;SDS011;8141;52.664;5.074;2023-08-31T05:21:05;1.80;;;0.40;;
16073;SDS011;8141;52.664;5.074;2023-08-31T05:23:31;0.67;;;0.20;;
16073;SDS011;8141;52.664;5.074;2023-08-31T05:25:57;0.30;;;0.20;;
16073;SDS011;8141;52.664;5.074;2023-08-31T05:28:23;0.30;;;0.20;;
16073;SDS011;8141;52.664;5.074;2023-08-31T05:30:49;0.30;;;0.17;;
16073;SDS011;8141;52.664;5.074;2023-08-31T05:33:18;0.60;;;0.30;;
16073;SDS011;8141;52.664;5.074;2023-08-31T05:35:44;0.30;;;0.20;;
16073;SDS011;8141;52.664;5.074;2023-08-31T05:38:11;0.27;;;0.20;;
16073;SDS011;8141;52.664;5.074;2023-08-31T05:40:37;0.20;;;0.20;;
16073;SDS011;8141;52.664;5.074;2023-08-31T05:43:03;0.20;;;0.20;;
16073;SDS011;8141;52.664;5.074;2023-08-31T05:45:33;0.20;;;0.20;;
16073;SDS011;8141;52.664;5.074;2023-08-31T05:47:59;0.33;;;0.17;;
16073;SDS011;8141;52.664;5.074;2023-08-31T05:50:26;2.43;;;0.20;;
16073;SDS011;8141;52.664;5.074;2023-08-31T05:52:52;0.30;;;0.30;;
16073;SDS011;8141;52.664;5.074;2023-08-31T05:55:19;1.83;;;0.27;;
16073;SDS011;8141;52.664;5.074;2023-08-31T05:57:45;0.63;;;0.13;;
16073;SDS011;8141;52.664;5.074;2023-08-31T06:00:11;1.30;;;0.30;;
16073;SDS011;8141;52.664;5.074;2023-08-31T06:02:38;0.30;;;0.30;;
16073;SDS011;8141;52.664;5.074;2023-08-31T06:05:04;9.47;;;1.37;;
16073;SDS011;8141;52.664;5.074;2023-08-31T06:07:30;9.33;;;0.87;;
16073;SDS011;8141;52.664;5.074;2023-08-31T06:09:56;10.03;;;1.30;;
16073;SDS011;8141;52.664;5.074;2023-08-31T06:12:22;7.93;;;1.00;;
16073;SDS011;8141;52.664;5.074;2023-08-31T06:14:48;8.40;;;1.17;;
16073;SDS011;8141;52.664;5.074;2023-08-31T06:17:14;5.70;;;0.80;;
16073;SDS011;8141;52.664;5.074;2023-08-31T06:19:40;6.33;;;0.73;;
16073;SDS011;8141;52.664;5.074;2023-08-31T06:22:07;5.53;;;0.73;;
16073;SDS011;8141;52.664;5.074;2023-08-31T06:24:33;2.63;;;0.73;;
16073;SDS011;8141;52.664;5.074;2023-08-31T06:26:59;6.27;;;1.67;;
16073;SDS011;8141;52.664;5.074;2023-08-31T06:29:25;3.13;;;0.70;;
16073;SDS011;8141;52.664;5.074;2023-08-31T06:31:51;3.03;;;0.97;;
16073;SDS011;8141;52.664;5.074;2023-08-31T06:34:17;2.77;;;0.87;;
16073;SDS011;8141;52.664;5.074;2023-08-31T06:36:43;3.07;;;0.90;;
16073;SDS011;8141;52.664;5.074;2023-08-31T06:39:09;4.77;;;0.97;;
16073;SDS011;8141;52.664;5.074;2023-08-31T06:41:34;2.60;;;0.80;;
16073;SDS011;8141;52.664;5.074;2023-08-31T06:44:01;4.37;;;1.03;;
16073;SDS011;8141;52.664;5.074;2023-08-31T06:46:29;3.40;;;0.80;;
16073;SDS011;8141;52.664;5.074;2023-08-31T06:48:58;3.00;;;0.90;;
16073;SDS011;8141;52.664;5.074;2023-08-31T06:51:25;6.80;;;0.90;;
16073;SDS011;8141;52.664;5.074;2023-08-31T06:53:50;4.80;;;0.83;;
16073;SDS011;8141;52.664;5.074;2023-08-31T06:56:16;6.97;;;0.90;;
16073;SDS011;8141;52.664;5.074;2023-08-31T06:58:42;4.33;;;1.00;;
16073;SDS011;8141;52.664;5.074;2023-08-31T07:01:08;1.43;;;0.77;;
16073;SDS011;8141;52.664;5.074;2023-08-31T07:03:34;3.73;;;0.73;;
16073;SDS011;8141;52.664;5.074;2023-08-31T07:06:00;1.77;;;0.53;;
16073;SDS011;8141;52.664;5.074;2023-08-31T07:08:26;3.70;;;0.73;;
16073;SDS011;8141;52.664;5.074;2023-08-31T07:10:51;3.60;;;1.13;;
16073;SDS011;8141;52.664;5.074;2023-08-31T07:13:17;4.23;;;1.10;;
16073;SDS011;8141;52.664;5.074;2023-08-31T07:15:43;3.33;;;1.47;;
16073;SDS011;8141;52.664;5.074;2023-08-31T07:18:08;3.40;;;0.70;;
16073;SDS011;8141;52.664;5.074;2023-08-31T07:20:34;4.87;;;1.00;;
16073;SDS011;8141;52.664;5.074;2023-08-31T07:23:00;4.10;;;1.00;;
16073;SDS011;8141;52.664;5.074;2023-08-31T07:25:26;3.37;;;1.10;;
16073;SDS011;8141;52.664;5.074;2023-08-31T07:27:52;6.83;;;0.90;;
16073;SDS011;8141;52.664;5.074;2023-08-31T07:30:18;2.77;;;0.93;;
16073;SDS011;8141;52.664;5.074;2023-08-31T07:32:44;5.33;;;0.80;;
16073;SDS011;8141;52.664;5.074;2023-08-31T07:35:09;3.93;;;0.90;;
16073;SDS011;8141;52.664;5.074;2023-08-31T07:37:35;4.53;;;1.20;;
16073;SDS011;8141;52.664;5.074;2023-08-31T07:40:02;4.47;;;0.90;;
16073;SDS011;8141;52.664;5.074;2023-08-31T07:42:33;3.97;;;1.07;;
16073;SDS011;8141;52.664;5.074;2023-08-31T07:45:00;2.63;;;0.60;;
16073;SDS011;8141;52.664;5.074;2023-08-31T07:47:25;3.80;;;0.90;;
16073;SDS011;8141;52.664;5.074;2023-08-31T07:49:51;3.33;;;0.77;;
16073;SDS011;8141;52.664;5.074;2023-08-31T07:52:17;3.20;;;0.70;;
16073;SDS011;8141;52.664;5.074;2023-08-31T07:54:42;2.37;;;0.70;;
16073;SDS011;8141;52.664;5.074;2023-08-31T07:57:08;2.43;;;0.80;;
16073;SDS011;8141;52.664;5.074;2023-08-31T07:59:34;1.30;;;0.70;;
16073;SDS011;8141;52.664;5.074;2023-08-31T08:02:00;1.97;;;0.70;;
16073;SDS011;8141;52.664;5.074;2023-08-31T08:04:25;3.03;;;1.20;;
16073;SDS011;8141;52.664;5.074;2023-08-31T08:06:52;2.63;;;0.70;;
16073;SDS011;8141;52.664;5.074;2023-08-31T08:09:19;3.33;;;1.17;;
16073;SDS011;8141;52.664;5.074;2023-08-31T08:11:44;2.93;;;1.03;;
16073;SDS011;8141;52.664;5.074;2023-08-31T08:14:10;4.30;;;1.10;;
16073;SDS011;8141;52.664;5.074;2023-08-31T08:16:36;5.50;;;1.10;;
16073;SDS011;8141;52.664;5.074;2023-08-31T08:19:02;2.87;;;0.70;;
16073;SDS011;8141;52.664;5.074;2023-08-31T08:21:28;4.47;;;1.00;;
16073;SDS011;8141;52.664;5.074;2023-08-31T08:23:53;3.30;;;0.97;;
16073;SDS011;8141;52.664;5.074;2023-08-31T08:26:19;4.63;;;0.70;;
16073;SDS011;8141;52.664;5.074;2023-08-31T08:28:45;3.13;;;1.10;;
16073;SDS011;8141;52.664;5.074;2023-08-31T08:31:11;4.83;;;1.10;;
16073;SDS011;8141;52.664;5.074;2023-08-31T08:33:37;2.77;;;0.70;;
16073;SDS011;8141;52.664;5.074;2023-08-31T08:36:03;2.83;;;0.90;;
16073;SDS011;8141;52.664;5.074;2023-08-31T08:38:29;3.97;;;1.07;;
16073;SDS011;8141;52.664;5.074;2023-08-31T08:40:55;5.07;;;1.10;;
16073;SDS011;8141;52.664;5.074;2023-08-31T08:43:27;19.50;;;3.33;;
16073;SDS011;8141;52.664;5.074;2023-08-31T08:45:54;24.30;;;7.47;;
16073;SDS011;8141;52.664;5.074;2023-08-31T08:48:22;31.87;;;8.43;;
16073;SDS011;8141;52.664;5.074;2023-08-31T08:50:48;27.40;;;6.73;;
16073;SDS011;8141;52.664;5.074;2023-08-31T08:53:14;31.90;;;7.13;;
16073;SDS011;8141;52.664;5.074;2023-08-31T08:55:40;24.63;;;6.13;;
16073;SDS011;8141;52.664;5.074;2023-08-31T08:58:06;22.13;;;6.07;;
16073;SDS011;8141;52.664;5.074;2023-08-31T09:00:32;22.40;;;6.20;;
16073;SDS011;8141;52.664;5.074;2023-08-31T09:03:02;18.77;;;5.13;;
16073;SDS011;8141;52.664;5.074;2023-08-31T09:05:30;19.30;;;5.43;;
16073;SDS011;8141;52.664;5.074;2023-08-31T09:08:06;20.10;;;4.93;;
16073;SDS011;8141;52.664;5.074;2023-08-31T09:10:44;16.00;;;4.80;;
16073;SDS011;8141;52.664;5.074;2023-08-31T09:13:11;15.40;;;4.30;;
16073;SDS011;8141;52.664;5.074;2023-08-31T09:15:49;19.65;;;5.32;;
16073;SDS011;8141;52.664;5.074;2023-08-31T09:18:31;24.43;;;6.93;;
16073;SDS011;8141;52.664;5.074;2023-08-31T09:20:57;25.23;;;6.37;;
16073;SDS011;8141;52.664;5.074;2023-08-31T09:23:25;20.87;;;6.20;;
16073;SDS011;8141;52.664;5.074;2023-08-31T09:25:52;23.10;;;7.10;;
16073;SDS011;8141;52.664;5.074;2023-08-31T09:28:23;22.30;;;7.07;;
16073;SDS011;8141;52.664;5.074;2023-08-31T09:30:52;21.70;;;6.47;;
16073;SDS011;8141;52.664;5.074;2023-08-31T09:33:19;22.67;;;6.87;;
16073;SDS011;8141;52.664;5.074;2023-08-31T09:35:59;27.53;;;6.17;;
16073;SDS011;8141;52.664;5.074;2023-08-31T09:38:26;16.43;;;5.07;;
16073;SDS011;8141;52.664;5.074;2023-08-31T09:40:52;18.37;;;5.43;;
16073;SDS011;8141;52.664;5.074;2023-08-31T09:43:28;14.50;;;4.73;;
16073;SDS011;8141;52.664;5.074;2023-08-31T09:45:54;14.53;;;4.03;;
16073;SDS011;8141;52.664;5.074;2023-08-31T09:48:20;12.77;;;4.27;;
16073;SDS011;8141;52.664;5.074;2023-08-31T09:50:48;14.63;;;3.97;;
16073;SDS011;8141;52.664;5.074;2023-08-31T09:53:16;11.03;;;3.83;;
16073;SDS011;8141;52.664;5.074;2023-08-31T09:55:43;11.63;;;3.77;;
16073;SDS011;8141;52.664;5.074;2023-08-31T09:58:08;10.33;;;2.80;;
16073;SDS011;8141;52.664;5.074;2023-08-31T10:00:35;7.10;;;2.90;;
16073;SDS011;8141;52.664;5.074;2023-08-31T10:03:03;6.47;;;2.63;;
16073;SDS011;8141;52.664;5.074;2023-08-31T10:05:30;7.57;;;2.77;;
16073;SDS011;8141;52.664;5.074;2023-08-31T10:07:58;6.17;;;2.23;;
16073;SDS011;8141;52.664;5.074;2023-08-31T10:10:24;5.67;;;1.87;;
16073;SDS011;8141;52.664;5.074;2023-08-31T10:12:53;8.37;;;2.20;;
16073;SDS011;8141;52.664;5.074;2023-08-31T10:15:19;5.77;;;1.13;;
16073;SDS011;8141;52.664;5.074;2023-08-31T10:17:45;6.00;;;1.80;;
16073;SDS011;8141;52.664;5.074;2023-08-31T10:20:12;5.27;;;1.60;;
16073;SDS011;8141;52.664;5.074;2023-08-31T10:22:41;7.10;;;1.87;;
16073;SDS011;8141;52.664;5.074;2023-08-31T10:25:08;4.90;;;1.30;;
16073;SDS011;8141;52.664;5.074;2023-08-31T10:27:38;4.40;;;1.30;;
16073;SDS011;8141;52.664;5.074;2023-08-31T10:33:01;4.37;;;1.50;;
16073;SDS011;8141;52.664;5.074;2023-08-31T10:35:49;5.97;;;1.50;;
16073;SDS011;8141;52.664;5.074;2023-08-31T10:38:23;3.60;;;1.10;;
16073;SDS011;8141;52.664;5.074;2023-08-31T10:41:02;2.33;;;1.20;;
16073;SDS011;8141;52.664;5.074;2023-08-31T10:47:03;4.20;;;1.30;;
16073;SDS011;8141;52.664;5.074;2023-08-31T10:51:34;6.23;;;1.73;;
16073;SDS011;8141;52.664;5.074;2023-08-31T10:54:24;4.17;;;1.20;;
16073;SDS011;8141;52.664;5.074;2023-08-31T10:59:26;3.40;;;1.20;;
16073;SDS011;8141;52.664;5.074;2023-08-31T11:02:29;3.53;;;1.10;;
16073;SDS011;8141;52.664;5.074;2023-08-31T11:05:16;2.87;;;1.10;;
16073;SDS011;8141;52.664;5.074;2023-08-31T11:07:47;2.13;;;1.20;;
16073;SDS011;8141;52.664;5.074;2023-08-31T11:10:18;4.30;;;1.40;;
16073;SDS011;8141;52.664;5.074;2023-08-31T11:12:53;3.20;;;1.20;;
16073;SDS011;8141;52.664;5.074;2023-08-31T11:15:20;2.90;;;1.27;;
16073;SDS011;8141;52.664;5.074;2023-08-31T11:17:51;4.13;;;1.23;;
16073;SDS011;8141;52.664;5.074;2023-08-31T11:20:20;3.80;;;1.17;;
16073;SDS011;8141;52.664;5.074;2023-08-31T11:22:49;2.20;;;0.80;;
16073;SDS011;8141;52.664;5.074;2023-08-31T11:25:18;2.40;;;0.90;;
16073;SDS011;8141;52.664;5.074;2023-08-31T11:30:41;2.53;;;0.87;;
16073;SDS011;8141;52.664;5.074;2023-08-31T11:33:09;2.37;;;0.83;;
16073;SDS011;8141;52.664;5.074;2023-08-31T11:35:37;2.77;;;0.93;;
16073;SDS011;8141;52.664;5.074;2023-08-31T11:38:07;5.70;;;1.20;;
16073;SDS011;8141;52.664;5.074;2023-08-31T11:40:33;1.70;;;1.17;;
16073;SDS011;8141;52.664;5.074;2023-08-31T11:43:00;3.63;;;1.40;;
16073;SDS011;8141;52.664;5.074;2023-08-31T11:45:26;2.33;;;0.90;;
16073;SDS011;8141;52.664;5.074;2023-08-31T11:47:53;2.20;;;1.07;;
16073;SDS011;8141;52.664;5.074;2023-08-31T11:50:20;1.93;;;0.80;;
16073;SDS011;8141;52.664;5.074;2023-08-31T11:52:47;2.33;;;1.00;;
16073;SDS011;8141;52.664;5.074;2023-08-31T11:55:14;4.93;;;1.10;;
16073;SDS011;8141;52.664;5.074;2023-08-31T11:57:52;4.23;;;1.10;;
16073;SDS011;8141;52.664;5.074;2023-08-31T12:00:19;3.30;;;1.00;;
16073;SDS011;8141;52.664;5.074;2023-08-31T12:02:56;3.30;;;1.13;;
16073;SDS011;8141;52.664;5.074;2023-08-31T12:05:26;3.63;;;1.00;;
16073;SDS011;8141;52.664;5.074;2023-08-31T12:07:53;4.37;;;1.20;;
16073;SDS011;8141;52.664;5.074;2023-08-31T12:10:20;3.33;;;0.90;;
16073;SDS011;8141;52.664;5.074;2023-08-31T12:12:46;4.23;;;1.10;;
16073;SDS011;8141;52.664;5.074;2023-08-31T12:15:11;1.40;;;0.60;;
16073;SDS011;8141;52.664;5.074;2023-08-31T12:17:37;3.17;;;0.90;;
16073;SDS011;8141;52.664;5.074;2023-08-31T12:20:08;3.93;;;1.30;;
16073;SDS011;8141;52.664;5.074;2023-08-31T12:22:37;2.53;;;1.10;;
16073;SDS011;8141;52.664;5.074;2023-08-31T12:25:03;3.37;;;1.23;;
16073;SDS011;8141;52.664;5.074;2023-08-31T12:27:30;3.80;;;1.10;;
16073;SDS011;8141;52.664;5.074;2023-08-31T12:29:56;2.70;;;0.90;;
16073;SDS011;8141;52.664;5.074;2023-08-31T12:32:23;3.97;;;0.97;;
16073;SDS011;8141;52.664;5.074;2023-08-31T12:34:48;3.23;;;0.93;;
16073;SDS011;8141;52.664;5.074;2023-08-31T12:37:14;5.27;;;1.30;;
16073;SDS011;8141;52.664;5.074;2023-08-31T12:39:40;3.53;;;0.93;;
16073;SDS011;8141;52.664;5.074;2023-08-31T12:42:07;4.20;;;1.20;;
16073;SDS011;8141;52.664;5.074;2023-08-31T12:44:33;1.70;;;0.83;;
16073;SDS011;8141;52.664;5.074;2023-08-31T12:46:58;3.53;;;0.90;;
16073;SDS011;8141;52.664;5.074;2023-08-31T12:49:24;4.30;;;1.47;;
16073;SDS011;8141;52.664;5.074;2023-08-31T12:51:50;3.43;;;1.10;;
16073;SDS011;8141;52.664;5.074;2023-08-31T12:54:16;2.97;;;1.13;;
16073;SDS011;8141;52.664;5.074;2023-08-31T12:56:42;2.37;;;0.80;;
16073;SDS011;8141;52.664;5.074;2023-08-31T12:59:08;2.50;;;1.30;;
16073;SDS011;8141;52.664;5.074;2023-08-31T13:01:34;3.23;;;0.97;;
16073;SDS011;8141;52.664;5.074;2023-08-31T13:04:01;2.87;;;1.10;;
16073;SDS011;8141;52.664;5.074;2023-08-31T13:06:27;3.10;;;1.00;;
16073;SDS011;8141;52.664;5.074;2023-08-31T13:08:53;2.23;;;1.03;;
16073;SDS011;8141;52.664;5.074;2023-08-31T13:11:19;3.20;;;1.00;;
16073;SDS011;8141;52.664;5.074;2023-08-31T13:13:48;3.10;;;1.10;;
16073;SDS011;8141;52.664;5.074;2023-08-31T13:16:17;3.67;;;1.13;;
16073;SDS011;8141;52.664;5.074;2023-08-31T13:18:43;2.23;;;0.87;;
16073;SDS011;8141;52.664;5.074;2023-08-31T13:21:09;1.87;;;1.23;;
16073;SDS011;8141;52.664;5.074;2023-08-31T13:23:35;2.50;;;1.03;;
16073;SDS011;8141;52.664;5.074;2023-08-31T13:26:00;3.43;;;0.90;;
16073;SDS011;8141;52.664;5.074;2023-08-31T13:28:27;2.67;;;0.90;;
16073;SDS011;8141;52.664;5.074;2023-08-31T13:30:56;2.47;;;1.00;;
16073;SDS011;8141;52.664;5.074;2023-08-31T13:33:23;3.97;;;1.10;;
16073;SDS011;8141;52.664;5.074;2023-08-31T13:35:49;2.70;;;0.90;;
16073;SDS011;8141;52.664;5.074;2023-08-31T13:38:15;3.57;;;1.00;;
16073;SDS011;8141;52.664;5.074;2023-08-31T13:40:40;1.93;;;0.80;;
16073;SDS011;8141;52.664;5.074;2023-08-31T13:43:06;4.13;;;1.00;;
16073;SDS011;8141;52.664;5.074;2023-08-31T13:45:32;3.87;;;1.13;;
16073;SDS011;8141;52.664;5.074;2023-08-31T13:47:58;2.70;;;0.80;;
16073;SDS011;8141;52.664;5.074;2023-08-31T13:50:25;3.53;;;1.37;;
16073;SDS011;8141;52.664;5.074;2023-08-31T13:52:52;2.03;;;0.73;;
16073;SDS011;8141;52.664;5.074;2023-08-31T13:55:18;2.27;;;1.00;;
16073;SDS011;8141;52.664;5.074;2023-08-31T13:57:44;2.53;;;1.03;;
16073;SDS011;8141;52.664;5.074;2023-08-31T14:00:10;2.10;;;0.77;;
16073;SDS011;8141;52.664;5.074;2023-08-31T14:02:37;3.70;;;0.90;;
16073;SDS011;8141;52.664;5.074;2023-08-31T14:05:03;2.30;;;0.87;;
16073;SDS011;8141;52.664;5.074;2023-08-31T14:07:31;2.50;;;0.80;;
16073;SDS011;8141;52.664;5.074;2023-08-31T14:10:01;1.50;;;0.83;;
16073;SDS011;8141;52.664;5.074;2023-08-31T14:12:30;3.37;;;0.90;;
16073;SDS011;8141;52.664;5.074;2023-08-31T14:14:56;2.03;;;0.87;;
16073;SDS011;8141;52.664;5.074;2023-08-31T14:17:23;3.17;;;1.00;;
16073;SDS011;8141;52.664;5.074;2023-08-31T14:19:49;3.60;;;1.30;;
16073;SDS011;8141;52.664;5.074;2023-08-31T14:22:14;3.10;;;0.73;;
16073;SDS011;8141;52.664;5.074;2023-08-31T14:24:40;2.27;;;0.90;;
16073;SDS011;8141;52.664;5.074;2023-08-31T14:27:06;4.33;;;1.00;;
16073;SDS011;8141;52.664;5.074;2023-08-31T14:29:32;2.37;;;0.90;;
16073;SDS011;8141;52.664;5.074;2023-08-31T14:31:58;2.47;;;0.90;;
16073;SDS011;8141;52.664;5.074;2023-08-31T14:34:23;3.17;;;1.00;;
16073;SDS011;8141;52.664;5.074;2023-08-31T14:36:50;4.43;;;0.97;;
16073;SDS011;8141;52.664;5.074;2023-08-31T14:39:17;2.90;;;0.80;;
16073;SDS011;8141;52.664;5.074;2023-08-31T14:41:43;4.93;;;1.43;;
16073;SDS011;8141;52.664;5.074;2023-08-31T14:44:08;3.50;;;1.27;;
16073;SDS011;8141;52.664;5.074;2023-08-31T14:46:34;2.90;;;1.13;;
16073;SDS011;8141;52.664;5.074;2023-08-31T14:49:00;3.00;;;0.87;;
16073;SDS011;8141;52.664;5.074;2023-08-31T14:51:25;2.67;;;0.70;;
16073;SDS011;8141;52.664;5.074;2023-08-31T14:53:51;2.70;;;0.70;;
16073;SDS011;8141;52.664;5.074;2023-08-31T14:56:17;2.60;;;1.00;;
16073;SDS011;8141;52.664;5.074;2023-08-31T14:58:42;2.10;;;1.00;;
16073;SDS011;8141;52.664;5.074;2023-08-31T15:01:08;3.83;;;1.13;;
16073;SDS011;8141;52.664;5.074;2023-08-31T15:03:34;2.20;;;0.87;;
16073;SDS011;8141;52.664;5.074;2023-08-31T15:06:00;2.67;;;1.13;;
16073;SDS011;8141;52.664;5.074;2023-08-31T15:08:36;2.13;;;0.87;;
16073;SDS011;8141;52.664;5.074;2023-08-31T15:11:04;2.93;;;0.90;;
16073;SDS011;8141;52.664;5.074;2023-08-31T15:13:29;2.37;;;1.17;;
16073;SDS011;8141;52.664;5.074;2023-08-31T15:15:55;2.07;;;0.70;;
16073;SDS011;8141;52.664;5.074;2023-08-31T15:18:21;3.83;;;0.90;;
16073;SDS011;8141;52.664;5.074;2023-08-31T15:20:47;2.27;;;0.97;;
16073;SDS011;8141;52.664;5.074;2023-08-31T15:23:13;2.53;;;0.80;;